Time;durP1;ratioP1;P1;durP2;ratioP2;P2;SDS_P1;SDS_P2;PMS_P1;PMS_P2;Temp;Humidity;BMP_temperature;BMP_pressure;BME280_temperature;BME280_humidity;BME280_pressure;Samples;Min_cycle;Max_cycle;Signal;HPM_P1;HPM_P2
2022/08/22 00:00:11;;;;;;;10.60;9.60;;;;;;;21.25;62.14;100559.06;5035765;28;20140;-73
2022/08/22 00:03:18;;;;;;;11.35;10.25;;;;;;;21.26;62.24;100561.56;5050802;28;20050;-73
2022/08/22 00:05:59;;;;;;;10.73;9.82;;;;;;;21.28;62.47;100558.38;5036017;28;20123;-73
2022/08/22 00:08:57;;;;;;;10.57;9.68;;;;;;;21.18;62.56;100548.28;5035793;28;20437;-72
2022/08/22 00:11:58;;;;;;;11.15;10.15;;;;;;;21.29;62.48;100562.84;5035876;28;20119;-74
2022/08/22 00:14:48;;;;;;;13.52;12.52;;;;;;;21.29;62.39;100554.34;5036377;28;20080;-74
2022/08/22 00:17:41;;;;;;;12.48;9.18;;;;;;;21.26;62.37;100543.69;5035810;28;20085;-74
2022/08/22 00:20:21;;;;;;;11.23;10.20;;;;;;;21.33;62.97;100543.91;5035481;28;20049;-74
2022/08/22 00:23:02;;;;;;;11.57;10.25;;;;;;;21.33;62.79;100551.63;5035704;28;20492;-73
2022/08/22 00:25:41;;;;;;;12.90;10.70;;;;;;;21.34;62.36;100551.31;5035416;28;20085;-73
2022/08/22 00:28:17;;;;;;;11.23;9.52;;;;;;;21.35;62.79;100552.97;5035179;28;20061;-73
2022/08/22 00:31:01;;;;;;;11.35;10.18;;;;;;;21.27;62.71;100542.50;5036345;28;20073;-74
2022/08/22 00:33:38;;;;;;;14.60;13.30;;;;;;;21.32;62.98;100547.94;5035635;28;20053;-74
2022/08/22 00:36:28;;;;;;;12.30;11.07;;;;;;;21.19;62.55;100532.91;5035528;28;20541;-74
2022/08/22 00:39:09;;;;;;;12.68;11.38;;;;;;;21.22;62.79;100532.19;5024579;28;20080;-74
2022/08/22 00:41:48;;;;;;;14.02;10.57;;;;;;;20.86;62.59;100479.03;5034972;28;20533;-74
2022/08/22 00:44:21;;;;;;;12.63;11.32;;;;;;;21.22;62.80;100531.38;5035037;28;20538;-74
2022/08/22 00:46:48;;;;;;;15.75;14.18;;;;;;;21.26;62.91;100538.84;5034993;28;20104;-74
2022/08/22 00:49:32;;;;;;;11.95;10.18;;;;;;;21.26;62.94;100540.84;5035638;28;20119;-74
2022/08/22 00:52:21;;;;;;;35.67;11.60;;;;;;;21.22;62.59;100525.69;5034788;28;20077;-74
2022/08/22 00:54:57;;;;;;;22.08;10.70;;;;;;;21.17;62.65;100517.41;5034842;28;20107;-74
2022/08/22 00:57:36;;;;;;;13.07;11.68;;;;;;;21.09;62.81;100504.97;5033381;28;20092;-73
2022/08/22 01:00:21;;;;;;;12.57;10.52;;;;;;;20.81;62.70;100480.06;5014924;28;20336;-74
2022/08/22 01:03:25;;;;;;;14.80;11.05;;;;;;;20.96;62.82;100506.97;5024454;28;20095;-73
2022/08/22 01:06:10;;;;;;;13.38;11.43;;;;;;;20.90;62.53;100505.53;5033822;28;20049;-73
2022/08/22 01:08:49;;;;;;;14.68;11.40;;;;;;;20.88;63.06;100510.72;5034494;28;20103;-74
2022/08/22 01:11:31;;;;;;;16.30;12.82;;;;;;;20.81;63.12;100499.13;5034768;28;20045;-73
2022/08/22 01:14:35;;;;;;;12.02;10.85;;;;;;;20.61;63.18;100475.28;5034551;28;20119;-73
2022/08/22 01:17:20;;;;;;;11.07;9.98;;;;;;;20.78;63.41;100505.50;5034404;28;20096;-74
2022/08/22 01:20:07;;;;;;;12.00;10.57;;;;;;;20.79;63.17;100495.81;5034327;28;20095;-74
2022/08/22 01:23:04;;;;;;;13.32;11.05;;;;;;;20.80;62.83;100480.44;4995137;28;20124;-74
2022/08/22 01:25:59;;;;;;;13.05;11.20;;;;;;;20.74;63.27;100485.50;5033955;28;20050;-73
2022/08/22 01:28:50;;;;;;;12.30;10.63;;;;;;;20.62;63.65;100474.13;5032939;28;20100;-74
2022/08/22 01:31:39;;;;;;;12.30;10.43;;;;;;;20.61;63.58;100486.66;5034352;28;20045;-74
2022/08/22 01:34:24;;;;;;;13.00;11.47;;;;;;;20.57;63.76;100477.19;5032865;28;20095;-74
2022/08/22 01:37:17;;;;;;;11.70;10.55;;;;;;;20.71;63.72;100479.69;5034309;28;20120;-72
2022/08/22 01:40:19;;;;;;;12.55;11.30;;;;;;;20.72;63.25;100470.84;5034736;28;20518;-74
2022/08/22 01:43:08;;;;;;;12.25;10.93;;;;;;;20.45;63.51;100421.22;5034039;28;20107;-73
2022/08/22 01:45:50;;;;;;;11.65;10.40;;;;;;;20.81;63.46;100470.75;5034066;28;20045;-73
2022/08/22 01:48:30;;;;;;;12.32;10.73;;;;;;;20.85;63.48;100468.84;5049018;28;20053;-74
2022/08/22 01:51:11;;;;;;;11.27;9.80;;;;;;;20.75;63.79;100443.75;5033681;28;20552;-73
2022/08/22 01:53:47;;;;;;;11.20;10.05;;;;;;;20.67;63.42;100419.16;5033688;28;20080;-74
2022/08/22 01:56:18;;;;;;;12.68;11.38;;;;;;;20.91;63.66;100461.78;5034153;28;20085;-73
2022/08/22 01:58:57;;;;;;;12.25;10.98;;;;;;;20.66;63.60;100431.72;5033795;28;20135;-73
2022/08/22 02:01:48;;;;;;;14.50;12.80;;;;;;;20.80;63.79;100449.22;5033269;28;20045;-73
2022/08/22 02:04:25;;;;;;;12.75;11.43;;;;;;;20.78;63.67;100448.72;5049073;28;20445;-73
2022/08/22 02:07:18;;;;;;;12.90;11.50;;;;;;;20.56;63.56;100433.81;5033568;28;20077;-74
2022/08/22 02:10:05;;;;;;;11.95;10.75;;;;;;;20.27;63.74;100397.91;5033486;28;20053;-72
2022/08/22 02:12:46;;;;;;;13.18;10.75;;;;;;;20.48;63.64;100434.72;5033556;28;20085;-73
2022/08/22 02:15:13;;;;;;;14.00;11.93;;;;;;;20.54;63.66;100439.00;5013766;28;20089;-72
2022/08/22 02:18:01;;;;;;;12.80;11.40;;;;;;;20.44;63.70;100428.06;5013662;28;20561;-74
2022/08/22 02:20:38;;;;;;;13.25;10.60;;;;;;;20.29;63.53;100400.38;5013579;28;20088;-73
2022/08/22 02:23:23;;;;;;;14.02;12.60;;;;;;;20.48;63.75;100425.38;5013574;28;20050;-74
2022/08/22 02:26:03;;;;;;;13.93;11.65;;;;;;;20.48;63.78;100417.69;5013413;28;20080;-73
2022/08/22 02:28:33;;;;;;;;;;;;;;;20.38;63.70;100422.97;5013764;28;20100;-73
2022/08/22 02:31:05;;;;;;;;;;;;;;;20.23;63.97;100415.94;5025626;28;20373;-72
2022/08/22 02:33:48;;;;;;;13.35;12.02;;;;;;;20.27;64.14;100414.06;5032969;28;19971;-73
2022/08/22 02:36:21;;;;;;;12.35;11.13;;;;;;;20.07;64.38;100402.44;5033259;28;20053;-73
2022/08/22 02:39:06;;;;;;;15.43;12.00;;;;;;;20.19;64.30;100412.16;5032979;28;20095;-73
2022/08/22 02:41:54;;;;;;;18.95;12.00;;;;;;;20.17;64.24;100411.66;5033287;28;20100;-72
2022/08/22 02:44:50;;;;;;;12.98;11.63;;;;;;;20.03;64.53;100406.28;5032801;28;20533;-74
2022/08/22 02:47:40;;;;;;;13.40;11.27;;;;;;;20.03;64.77;100407.16;5028206;28;20085;-73
2022/08/22 02:50:07;;;;;;;;;;;;;;;19.82;64.88;100412.81;5053044;28;20080;-74
2022/08/22 02:53:03;;;;;;;12.93;11.55;;;;;;;19.87;64.56;100389.94;5051490;28;20004;-72
2022/08/22 02:55:41;;;;;;;12.32;11.05;;;;;;;19.72;64.49;100355.75;5052602;28;20054;-73
2022/08/22 02:58:17;;;;;;;12.80;11.50;;;;;;;20.10;64.69;100421.59;5052482;28;20524;-73
2022/08/22 03:01:16;;;;;;;13.68;11.05;;;;;;;20.09;64.56;100408.56;5046927;28;20041;-73
2022/08/22 03:03:46;;;;;;;12.30;11.15;;;;;;;20.16;64.63;100393.00;5007710;28;20054;-72
2022/08/22 03:06:37;;;;;;;11.40;10.27;;;;;;;20.23;64.23;100388.41;5013420;28;20100;-74
2022/08/22 03:09:13;;;;;;;11.65;10.40;;;;;;;20.44;64.30;100398.88;5013092;28;20085;-73
2022/08/22 03:11:48;;;;;;;12.15;10.95;;;;;;;20.25;64.42;100368.22;5012960;28;20482;-72
2022/08/22 03:14:32;;;;;;;13.07;11.65;;;;;;;20.36;64.26;100394.97;5012997;28;20092;-73
2022/08/22 03:17:12;;;;;;;14.80;12.25;;;;;;;20.28;64.29;100393.06;5013153;28;20045;-74
2022/08/22 03:20:12;;;;;;;13.73;11.20;;;;;;;20.33;64.11;100404.16;5013154;28;20198;-74
2022/08/22 03:22:58;;;;;;;;;;;;;;;20.22;64.09;100400.13;5033957;28;20049;-74
2022/08/22 03:25:54;;;;;;;12.93;11.48;;;;;;;20.19;64.33;100397.97;5036512;28;19921;-74
2022/08/22 03:28:37;;;;;;;11.93;10.32;;;;;;;19.75;64.92;100344.53;5027835;28;20088;-74
2022/08/22 03:31:24;;;;;;;12.77;11.35;;;;;;;20.07;64.85;100405.28;5036365;28;20498;-73
2022/08/22 03:34:20;;;;;;;14.35;11.35;;;;;;;20.05;64.59;100404.78;5036543;28;20400;-73
2022/08/22 03:37:14;;;;;;;13.15;11.65;;;;;;;20.12;64.58;100398.53;5036299;28;20049;-72
2022/08/22 03:39:49;;;;;;;13.68;11.73;;;;;;;20.16;64.43;100405.16;5036987;28;20049;-73
2022/08/22 03:42:29;;;;;;;11.75;10.70;;;;;;;20.28;64.52;100407.22;5036111;28;20085;-73
2022/08/22 03:45:33;;;;;;;12.30;10.88;;;;;;;20.36;64.43;100409.13;5036293;28;20137;-74
2022/08/22 03:48:19;;;;;;;11.15;9.95;;;;;;;20.38;64.41;100386.94;5035992;28;20080;-74
2022/08/22 03:51:08;;;;;;;11.32;10.25;;;;;;;20.52;64.88;100398.00;5036323;28;20063;-74
2022/08/22 03:53:58;;;;;;;11.55;10.30;;;;;;;20.63;64.49;100395.53;5036294;28;20464;-71
2022/08/22 03:56:37;;;;;;;13.25;12.00;;;;;;;20.62;64.67;100389.03;5050060;28;20076;-71
2022/08/22 03:59:33;;;;;;;12.57;11.15;;;;;;;20.71;64.88;100389.72;5055844;28;20075;-72
2022/08/22 04:02:12;;;;;;;11.88;10.68;;;;;;;20.81;64.56;100379.91;5041156;28;20049;-73
2022/08/22 04:05:45;;;;;;;12.88;11.10;;;;;;;20.68;64.35;100364.06;5035526;28;20049;-73
2022/08/22 04:08:45;;;;;;;14.30;12.02;;;;;;;20.80;63.85;100375.44;5016142;28;20049;-73
2022/08/22 04:11:20;;;;;;;17.45;12.68;;;;;;;20.82;63.80;100375.91;5016243;28;20049;-74
2022/08/22 04:14:02;;;;;;;16.10;11.73;;;;;;;20.74;63.94;100371.16;5034844;28;20088;-73
2022/08/22 04:16:54;;;;;;;18.33;11.40;;;;;;;20.58;63.87;100351.16;5050868;28;20077;-73
2022/08/22 04:19:46;;;;;;;11.70;10.43;;;;;;;20.53;64.36;100366.41;5035442;28;20053;-73
2022/08/22 04:22:21;;;;;;;14.32;11.27;;;;;;;20.28;64.38;100330.66;5035252;28;20199;-73
2022/08/22 04:25:13;;;;;;;11.13;10.05;;;;;;;20.42;64.27;100362.34;5035669;28;20464;-73
2022/08/22 04:27:54;;;;;;;11.32;10.15;;;;;;;20.43;64.38;100360.34;5035470;28;20084;-73
2022/08/22 04:30:30;;;;;;;11.70;10.52;;;;;;;20.36;64.32;100353.25;5035795;28;20111;-73
2022/08/22 04:33:00;;;;;;;13.75;10.40;;;;;;;20.33;64.54;100361.63;5034742;28;20072;-73
2022/08/22 04:35:55;;;;;;;10.77;9.73;;;;;;;20.27;64.23;100354.50;5035155;28;20049;-72
2022/08/22 04:38:36;;;;;;;16.23;14.73;;;;;;;20.26;64.14;100350.03;5035207;28;20089;-73
2022/08/22 04:41:17;;;;;;;13.68;10.75;;;;;;;20.16;64.31;100342.78;5035245;28;20045;-73
2022/08/22 04:43:50;;;;;;;13.20;10.73;;;;;;;19.88;64.22;100298.06;5033570;28;20096;-73
2022/08/22 04:46:35;;;;;;;12.13;9.10;;;;;;;20.15;64.40;100351.66;5035594;28;20053;-73
2022/08/22 04:49:31;;;;;;;12.07;10.88;;;;;;;20.10;64.46;100356.38;5034972;28;20054;-74
2022/08/22 04:52:17;;;;;;;10.35;9.45;;;;;;;20.06;64.66;100363.91;5031651;28;20045;-74
2022/08/22 04:54:56;;;;;;;13.00;9.95;;;;;;;19.98;64.47;100359.16;5034728;28;20136;-73
2022/08/22 04:57:50;;;;;;;13.85;10.02;;;;;;;20.01;64.29;100360.47;5034622;28;20514;-73
2022/08/22 05:00:17;;;;;;;9.88;8.93;;;;;;;20.00;64.45;100365.31;5035002;28;20049;-72
2022/08/22 05:02:49;;;;;;;10.38;9.32;;;;;;;19.99;64.24;100357.16;5035093;28;20088;-73
2022/08/22 05:05:23;;;;;;;10.77;9.68;;;;;;;19.95;64.38;100333.53;5034643;28;20096;-73
2022/08/22 05:07:57;;;;;;;11.18;9.90;;;;;;;19.70;64.57;100301.44;5034659;28;20095;-73
2022/08/22 05:10:34;;;;;;;11.30;10.27;;;;;;;19.43;64.22;100252.69;5034699;28;20095;-73
2022/08/22 05:13:06;;;;;;;12.00;10.15;;;;;;;19.73;64.24;100309.25;5035029;28;20049;-73
2022/08/22 05:15:37;;;;;;;10.45;9.55;;;;;;;19.92;64.51;100334.22;5034420;28;20490;-73
2022/08/22 05:18:15;;;;;;;11.20;9.63;;;;;;;19.71;64.25;100308.78;5034555;28;20045;-73
2022/08/22 05:20:47;;;;;;;10.75;9.68;;;;;;;19.61;64.26;100305.16;5034955;28;20096;-72
2022/08/22 05:23:23;;;;;;;9.65;8.77;;;;;;;19.49;64.30;100278.81;5034563;28;20067;-73
2022/08/22 05:25:55;;;;;;;10.63;9.52;;;;;;;19.65;64.55;100297.63;5034620;28;20080;-73
2022/08/22 05:28:34;;;;;;;11.50;10.38;;;;;;;20.03;64.45;100349.59;5034422;28;20061;-73
2022/08/22 05:31:10;;;;;;;13.65;10.57;;;;;;;19.70;64.42;100305.09;5034264;28;20050;-73
2022/08/22 05:33:43;;;;;;;11.18;10.13;;;;;;;20.04;64.47;100357.78;5034157;28;20077;-73
2022/08/22 05:36:40;;;;;;;11.63;10.38;;;;;;;20.03;64.34;100361.78;5032742;28;20110;-73
2022/08/22 05:39:11;;;;;;;11.23;10.10;;;;;;;20.09;64.73;100366.03;5053818;28;20067;-72
2022/08/22 05:41:39;;;;;;;10.57;9.60;;;;;;;19.94;64.74;100341.22;5038903;28;20081;-72
2022/08/22 05:44:17;;;;;;;10.82;9.80;;;;;;;20.03;64.69;100360.94;5033260;28;20521;-73
2022/08/22 05:46:49;;;;;;;12.13;10.15;;;;;;;19.70;64.90;100312.78;5033776;28;20049;-73
2022/08/22 05:49:28;;;;;;;11.25;10.15;;;;;;;20.03;65.05;100367.47;5033198;28;20081;-74
2022/08/22 05:52:07;;;;;;;9.93;9.02;;;;;;;19.63;64.47;100297.16;5033814;28;20041;-74
2022/08/22 05:54:51;;;;;;;11.90;10.30;;;;;;;19.95;64.50;100356.19;5022258;28;20077;-74
2022/08/22 05:57:35;;;;;;;11.63;10.43;;;;;;;19.54;64.87;100304.88;5033702;28;20089;-73
2022/08/22 06:00:17;;;;;;;12.52;10.68;;;;;;;19.87;64.92;100349.44;5033740;28;20049;-73
2022/08/22 06:03:05;;;;;;;10.73;9.60;;;;;;;19.93;64.73;100344.38;5033417;28;20049;-73
2022/08/22 06:05:38;;;;;;;11.20;10.30;;;;;;;19.97;64.86;100346.19;5033481;28;20088;-73
2022/08/22 06:08:30;;;;;;;12.13;10.88;;;;;;;19.99;64.73;100355.16;5033410;28;20080;-74
2022/08/22 06:11:04;;;;;;;13.00;11.60;;;;;;;19.98;64.99;100353.50;5034029;28;20464;-74
2022/08/22 06:13:39;;;;;;;14.82;13.45;;;;;;;20.10;65.00;100356.38;5033780;28;20118;-73
2022/08/22 06:16:22;;;;;;;11.50;10.32;;;;;;;20.15;64.94;100363.84;5033269;28;20056;-72
2022/08/22 06:18:51;;;;;;;13.65;11.77;;;;;;;20.22;65.11;100371.75;5048623;28;20088;-74
2022/08/22 06:21:28;;;;;;;13.37;11.97;;;;;;;20.23;65.00;100371.41;5033281;28;20045;-73
2022/08/22 06:24:08;;;;;;;15.57;13.50;;;;;;;20.05;65.42;100318.91;5033412;28;20391;-74
2022/08/22 06:26:39;;;;;;;16.48;14.40;;;;;;;20.24;65.23;100352.38;5031905;28;20100;-73
2022/08/22 06:29:07;;;;;;;14.13;12.30;;;;;;;20.36;64.89;100352.41;5033475;28;20085;-74
2022/08/22 06:31:41;;;;;;;14.00;12.57;;;;;;;20.55;65.12;100366.91;5033415;28;20425;-75
2022/08/22 06:34:13;;;;;;;14.75;12.70;;;;;;;20.58;65.39;100349.19;5031808;28;20794;-74
2022/08/22 06:36:45;;;;;;;15.02;12.60;;;;;;;20.16;65.40;100268.25;5033255;28;20081;-73
2022/08/22 06:39:28;;;;;;;15.93;14.48;;;;;;;20.87;65.48;100366.34;5033338;28;20049;-73
2022/08/22 06:41:59;;;;;;;12.38;11.15;;;;;;;20.92;65.21;100364.09;5033119;28;20057;-74
2022/08/22 06:44:32;;;;;;;11.40;10.40;;;;;;;21.01;65.18;100361.94;5033150;28;20326;-75
2022/08/22 06:47:03;;;;;;;12.50;11.40;;;;;;;21.19;64.83;100350.31;5050471;28;20081;-73
2022/08/22 06:49:33;;;;;;;10.52;9.57;;;;;;;21.47;64.43;100342.75;5052718;28;20084;-73
2022/08/22 06:52:22;;;;;;;10.40;9.40;;;;;;;21.65;64.23;100336.75;5052606;28;20107;-75
2022/08/22 06:54:58;;;;;;;11.02;9.93;;;;;;;21.98;63.79;100357.22;5067999;28;20410;-74
2022/08/22 06:57:35;;;;;;;11.07;9.48;;;;;;;22.26;63.63;100376.31;5052785;28;20497;-74
2022/08/22 07:00:09;;;;;;;12.77;10.20;;;;;;;22.50;63.03;100368.81;5052977;28;20068;-75
2022/08/22 07:02:42;;;;;;;9.55;8.65;;;;;;;22.22;62.45;100298.56;5051968;28;20045;-74
2022/08/22 07:05:16;;;;;;;9.35;8.52;;;;;;;22.89;62.12;100364.94;5068458;28;20438;-74
2022/08/22 07:07:43;;;;;;;10.23;9.27;;;;;;;22.79;62.02;100316.28;5052857;28;20547;-74
2022/08/22 07:10:14;;;;;;;12.73;11.65;;;;;;;23.30;61.58;100368.41;5053150;28;20464;-74
2022/08/22 07:12:49;;;;;;;12.85;11.60;;;;;;;23.18;61.42;100318.09;5051568;28;20559;-74
2022/08/22 07:15:42;;;;;;;11.13;10.23;;;;;;;23.75;61.03;100375.56;5053247;28;20083;-74
2022/08/22 07:18:19;;;;;;;13.15;10.75;;;;;;;24.10;59.76;100377.50;5050861;28;20103;-74
2022/08/22 07:20:57;;;;;;;11.38;10.23;;;;;;;24.42;59.08;100372.44;5051871;28;20076;-74
2022/08/22 07:23:43;;;;;;;10.68;9.68;;;;;;;24.10;58.83;100274.78;5052586;28;20055;-75
2022/08/22 07:26:32;;;;;;;10.35;9.50;;;;;;;24.95;57.91;100357.44;5052413;28;20505;-73
2022/08/22 07:29:32;;;;;;;10.23;9.32;;;;;;;25.01;57.76;100345.31;5048334;28;20502;-78
2022/08/22 07:32:15;;;;;;;9.68;8.77;;;;;;;25.22;57.17;100336.28;5032726;28;20425;-74
2022/08/22 07:35:01;;;;;;;9.38;8.57;;;;;;;25.67;56.32;100365.91;5032314;28;20078;-77
2022/08/22 07:38:06;;;;;;;10.45;9.38;;;;;;;25.95;56.03;100361.81;5047340;28;20476;-74
2022/08/22 07:40:42;;;;;;;9.35;8.65;;;;;;;26.33;55.02;100369.22;5052539;28;20049;-75
2022/08/22 07:43:30;;;;;;;10.27;9.57;;;;;;;26.55;54.78;100367.41;5052163;28;20045;-74
2022/08/22 07:46:10;;;;;;;16.45;14.80;;;;;;;26.60;54.21;100349.88;5052509;28;20092;-74
2022/08/22 07:48:43;;;;;;;;;;;;;;;26.68;55.40;100376.53;5052895;28;20123;-74
2022/08/22 07:51:35;;;;;;;11.63;10.73;;;;;;;27.06;53.98;100369.50;5051943;28;20402;-75
2022/08/22 07:54:09;;;;;;;13.27;10.80;;;;;;;26.89;53.13;100273.59;5050436;28;20090;-74
2022/08/22 07:56:56;;;;;;;10.98;10.07;;;;;;;27.11;52.33;100273.72;5052816;28;20122;-75
2022/08/22 07:59:27;;;;;;;12.25;11.02;;;;;;;27.94;51.65;100363.94;5052488;28;20072;-75
2022/08/22 08:01:57;;;;;;;14.25;13.00;;;;;;;28.23;50.83;100359.09;5052341;28;20049;-75
2022/08/22 08:04:29;;;;;;;13.65;12.45;;;;;;;28.17;50.41;100317.66;5052092;28;20077;-75
2022/08/22 08:06:59;;;;;;;13.38;11.93;;;;;;;28.66;49.86;100368.66;5053071;28;20099;-75
2022/08/22 08:09:32;;;;;;;11.95;10.73;;;;;;;28.94;49.39;100367.84;5055553;28;20064;-74
2022/08/22 08:12:02;;;;;;;12.32;11.10;;;;;;;29.12;49.18;100375.69;5070269;28;20049;-74
2022/08/22 08:14:30;;;;;;;15.25;13.18;;;;;;;29.01;48.07;100313.25;5056060;28;20111;-74
2022/08/22 08:17:22;;;;;;;14.65;12.88;;;;;;;29.51;48.62;100355.50;5054457;28;20507;-74
2022/08/22 08:19:50;;;;;;;14.45;13.13;;;;;;;29.62;47.55;100329.59;5055457;28;20076;-74
2022/08/22 08:22:26;;;;;;;16.50;12.88;;;;;;;30.01;46.88;100368.91;5055716;28;20049;-74
2022/08/22 08:24:56;;;;;;;15.18;13.63;;;;;;;30.13;46.98;100352.00;5055435;28;20079;-74
2022/08/22 08:30:32;;;;;;;17.08;15.32;;;;;;;30.30;45.55;100315.72;5041093;28;20104;-75
2022/08/22 08:33:01;;;;;;;16.15;14.25;;;;;;;30.78;45.61;100352.44;5035844;28;20095;-75
2022/08/22 08:35:55;;;;;;;;;;;;;;;30.78;46.97;100351.63;5035873;28;20049;-74
2022/08/22 08:38:40;;;;;;;17.40;14.82;;;;;;;30.96;45.59;100339.94;5035451;28;19966;-74
2022/08/22 08:41:44;;;;;;;14.25;12.80;;;;;;;31.27;45.00;100361.88;5035276;28;20130;-75
2022/08/22 08:44:29;;;;;;;13.35;11.95;;;;;;;31.51;44.46;100359.19;5039299;28;20133;-74
2022/08/22 08:47:15;;;;;;;13.90;11.75;;;;;;;31.41;43.87;100320.53;5053625;28;20080;-74
2022/08/22 08:50:06;;;;;;;12.43;11.32;;;;;;;31.78;43.18;100356.41;5015114;28;20570;-74
2022/08/22 08:53:06;;;;;;;15.25;11.80;;;;;;;31.58;43.16;100319.53;5015240;28;20089;-73
2022/08/22 08:56:17;;;;;;;12.27;11.02;;;;;;;32.09;43.37;100363.06;5015128;28;20045;-75
2022/08/22 08:59:13;;;;;;;12.00;10.82;;;;;;;32.31;42.71;100355.75;5015271;28;20064;-74
2022/08/22 09:01:53;;;;;;;12.18;11.05;;;;;;;32.55;42.27;100355.84;5031730;28;20099;-75
2022/08/22 09:04:45;;;;;;;15.30;10.63;;;;;;;32.75;41.73;100361.69;5054612;28;20045;-74
2022/08/22 09:07:40;;;;;;;13.80;10.75;;;;;;;32.89;41.33;100354.84;5054652;28;20098;-74
2022/08/22 09:10:31;;;;;;;11.63;10.52;;;;;;;32.99;40.69;100362.56;5054779;28;20049;-75
2022/08/22 09:13:07;;;;;;;11.95;10.65;;;;;;;33.07;40.91;100364.09;5054416;28;20049;-74
2022/08/22 09:15:38;;;;;;;17.67;16.08;;;;;;;33.12;40.65;100357.78;5054548;28;20055;-74
2022/08/22 09:18:26;;;;;;;12.65;11.35;;;;;;;33.23;40.27;100348.91;5052830;28;20055;-74
2022/08/22 09:21:24;;;;;;;13.77;12.38;;;;;;;33.31;40.40;100347.53;5054407;28;20510;-73
2022/08/22 09:24:45;;;;;;;16.48;11.65;;;;;;;33.44;40.27;100327.47;5054565;28;20041;-73
2022/08/22 09:27:23;;;;;;;15.13;11.50;;;;;;;33.63;39.59;100326.66;5054180;28;20045;-75
2022/08/22 09:29:58;;;;;;;14.45;13.10;;;;;;;33.86;39.15;100340.25;5032225;28;20062;-75
2022/08/22 09:32:45;;;;;;;15.27;13.98;;;;;;;34.03;39.38;100341.19;5014369;28;20086;-75
2022/08/22 09:35:22;;;;;;;15.88;11.40;;;;;;;33.70;38.99;100277.28;5021422;28;20107;-75
2022/08/22 09:37:52;;;;;;;11.23;10.13;;;;;;;34.34;38.47;100344.63;5034101;28;20081;-75
2022/08/22 09:40:36;;;;;;;12.85;11.13;;;;;;;34.30;37.73;100343.06;5034043;28;20057;-74
2022/08/22 09:43:12;;;;;;;11.48;10.50;;;;;;;34.29;38.06;100318.22;5033673;28;20552;-74
2022/08/22 09:46:14;;;;;;;14.50;11.52;;;;;;;34.40;37.83;100342.00;5034095;28;20128;-74
2022/08/22 09:49:02;;;;;;;12.55;11.23;;;;;;;34.46;38.12;100337.28;5033997;28;20118;-74
2022/08/22 09:51:53;;;;;;;13.85;12.77;;;;;;;34.59;37.28;100343.22;5033659;28;20103;-74
2022/08/22 09:54:47;;;;;;;11.93;10.77;;;;;;;34.61;37.45;100341.53;5033738;28;20046;-74
2022/08/22 09:57:15;;;;;;;12.35;11.07;;;;;;;34.72;37.33;100349.16;5033556;28;20053;-74
2022/08/22 10:00:08;;;;;;;14.68;13.57;;;;;;;34.80;36.59;100338.97;5033541;28;20049;-74
2022/08/22 10:02:57;;;;;;;17.20;15.82;;;;;;;34.79;36.25;100328.66;5032414;28;20045;-73
2022/08/22 10:05:45;;;;;;;15.05;13.77;;;;;;;34.84;36.02;100333.94;5033350;28;20060;-74
2022/08/22 10:08:38;;;;;;;16.25;14.85;;;;;;;34.80;35.97;100330.28;5033383;28;20053;-75
2022/08/22 10:11:12;;;;;;;12.82;11.82;;;;;;;34.94;35.15;100346.50;5052537;28;20513;-75
2022/08/22 10:14:03;;;;;;;13.45;12.25;;;;;;;34.93;35.39;100331.19;5053239;28;20497;-73
2022/08/22 10:16:51;;;;;;;16.63;15.38;;;;;;;35.01;34.76;100332.69;5053467;28;20048;-74
2022/08/22 10:19:31;;;;;;;11.60;10.52;;;;;;;34.98;34.46;100336.47;5053355;28;20475;-74
2022/08/22 10:22:31;;;;;;;11.70;10.75;;;;;;;34.50;34.09;100256.84;5035579;28;20111;-74
2022/08/22 10:25:23;;;;;;;13.65;12.38;;;;;;;35.09;34.08;100330.41;5032475;28;20150;-74
2022/08/22 10:27:59;;;;;;;12.07;11.15;;;;;;;35.14;33.97;100329.84;5036766;28;20080;-74
2022/08/22 10:30:37;;;;;;;13.88;12.48;;;;;;;35.27;33.43;100335.72;5035419;28;20060;-73
2022/08/22 10:33:30;;;;;;;11.55;10.27;;;;;;;34.85;33.19;100272.53;5036397;28;20073;-73
2022/08/22 10:36:06;;;;;;;10.57;9.68;;;;;;;35.10;32.87;100303.81;5036364;28;20053;-73
2022/08/22 10:38:49;;;;;;;10.98;10.07;;;;;;;35.31;32.80;100324.81;5034142;28;20057;-73
2022/08/22 10:41:25;;;;;;;11.70;10.60;;;;;;;35.48;32.54;100335.13;5033746;28;20045;-74
2022/08/22 10:43:59;;;;;;;11.52;10.35;;;;;;;35.62;32.24;100333.13;5031186;28;20536;-74
2022/08/22 10:46:57;;;;;;;10.52;9.73;;;;;;;35.61;31.56;100314.88;5032890;28;20057;-74
2022/08/22 10:49:32;;;;;;;10.65;9.63;;;;;;;35.51;31.34;100308.09;5032772;28;20524;-75
2022/08/22 10:52:06;;;;;;;11.25;10.32;;;;;;;35.65;31.74;100321.41;5032764;28;20065;-75
2022/08/22 10:55:02;;;;;;;10.75;9.95;;;;;;;35.68;31.50;100311.75;5032724;28;20041;-75
2022/08/22 10:58:08;;;;;;;10.48;9.73;;;;;;;35.67;31.45;100309.34;5032813;28;20525;-74
2022/08/22 11:00:48;;;;;;;11.57;10.68;;;;;;;35.79;31.55;100314.34;5033254;28;20057;-75
2022/08/22 11:03:48;;;;;;;11.38;10.40;;;;;;;35.77;31.92;100299.50;5048164;28;20077;-75
2022/08/22 11:06:23;;;;;;;11.65;10.70;;;;;;;35.89;31.49;100289.16;5019157;28;20057;-74
2022/08/22 11:09:08;;;;;;;14.90;13.90;;;;;;;36.06;31.92;100294.44;5032707;28;20502;-74
2022/08/22 11:11:38;;;;;;;13.07;11.80;;;;;;;36.17;31.96;100307.81;5048043;28;20055;-75
2022/08/22 11:14:29;;;;;;;13.05;12.15;;;;;;;36.20;32.52;100287.34;5032579;28;20049;-74
2022/08/22 11:17:14;;;;;;;15.48;14.48;;;;;;;36.27;32.06;100292.13;5028163;28;20049;-75
2022/08/22 11:20:00;;;;;;;11.50;10.70;;;;;;;36.42;31.67;100293.31;5033296;28;20453;-74
2022/08/22 11:22:29;;;;;;;11.50;10.70;;;;;;;36.56;31.56;100303.69;5032601;28;20055;-74
2022/08/22 11:25:14;;;;;;;12.05;10.80;;;;;;;36.64;32.06;100292.63;5032391;28;20050;-74
2022/08/22 11:28:04;;;;;;;15.07;13.98;;;;;;;36.80;31.43;100303.31;5032272;28;20065;-74
2022/08/22 11:31:02;;;;;;;10.65;9.85;;;;;;;36.82;32.12;100292.00;5032451;28;20494;-74
2022/08/22 11:33:51;;;;;;;11.15;10.20;;;;;;;36.99;31.70;100300.16;5032537;28;20045;-75
2022/08/22 11:36:40;;;;;;;11.30;10.50;;;;;;;37.05;31.65;100273.38;5032331;28;20045;-74
2022/08/22 11:39:36;;;;;;;10.23;9.18;;;;;;;37.03;31.32;100264.28;5032389;28;20088;-75
2022/08/22 11:42:07;;;;;;;10.43;9.52;;;;;;;37.25;31.06;100279.69;5033581;28;20128;-74
2022/08/22 11:44:55;;;;;;;14.68;10.13;;;;;;;36.73;31.62;100193.81;5036253;28;20081;-74
2022/08/22 11:47:36;;;;;;;10.27;9.25;;;;;;;37.41;30.83;100258.31;5036239;28;20049;-75
2022/08/22 11:50:27;;;;;;;11.23;9.73;;;;;;;37.37;30.17;100264.28;5016850;28;20058;-74
2022/08/22 11:53:00;;;;;;;11.40;8.73;;;;;;;37.59;30.11;100254.75;5035556;28;20070;-74
2022/08/22 11:55:46;;;;;;;9.98;9.13;;;;;;;37.85;29.46;100270.81;5035884;28;20049;-74
2022/08/22 11:58:39;;;;;;;10.23;9.40;;;;;;;38.30;28.94;100254.03;5036103;28;20054;-73
2022/08/22 12:01:27;;;;;;;9.77;8.50;;;;;;;38.77;28.31;100242.06;5030580;28;20486;-74
2022/08/22 12:04:02;;;;;;;10.05;9.15;;;;;;;39.10;27.27;100241.47;5035903;28;20052;-74
2022/08/22 12:06:50;;;;;;;10.10;9.10;;;;;;;39.44;27.08;100239.53;5035865;28;20494;-74
2022/08/22 12:09:31;;;;;;;9.50;8.50;;;;;;;39.78;26.33;100215.78;5036275;28;20049;-72
2022/08/22 12:12:11;;;;;;;9.32;8.02;;;;;;;40.56;25.61;100239.53;5035703;28;20057;-73
2022/08/22 12:15:09;;;;;;;8.60;7.90;;;;;;;41.11;24.53;100227.50;5035608;28;20516;-73
2022/08/22 12:18:01;;;;;;;12.00;8.45;;;;;;;41.63;24.35;100233.88;5035943;28;20417;-74
2022/08/22 12:20:52;;;;;;;8.95;8.15;;;;;;;42.10;23.63;100232.06;5035666;28;20053;-74
2022/08/22 12:23:50;;;;;;;10.40;8.32;;;;;;;42.98;22.71;100224.34;5034513;28;20078;-74
2022/08/22 12:26:54;;;;;;;13.48;12.38;;;;;;;43.83;21.98;100216.47;5048875;28;20505;-74
2022/08/22 12:29:42;;;;;;;10.27;8.45;;;;;;;43.82;21.47;100218.59;5055328;28;20425;-74